sensor_id;sensor_type;location;lat;lon;timestamp;pressure;altitude;pressure_sealevel;temperature;humidity
10348;BME280;5220;43.192;23.284;2024-03-08T00:01:15;97195.56;;;5.26;100.00
10348;BME280;5220;43.192;23.284;2024-03-08T00:03:45;97191.13;;;5.47;100.00
10348;BME280;5220;43.192;23.284;2024-03-08T00:06:12;97208.94;;;5.34;100.00
10348;BME280;5220;43.192;23.284;2024-03-08T00:08:39;97210.47;;;5.56;100.00
10348;BME280;5220;43.192;23.284;2024-03-08T00:11:06;97208.19;;;5.67;100.00
10348;BME280;5220;43.192;23.284;2024-03-08T00:13:33;97209.56;;;5.57;100.00
10348;BME280;5220;43.192;23.284;2024-03-08T00:16:00;97214.00;;;5.36;100.00
10348;BME280;5220;43.192;23.284;2024-03-08T00:18:27;97217.22;;;5.58;100.00
10348;BME280;5220;43.192;23.284;2024-03-08T00:20:55;97219.66;;;5.78;100.00
10348;BME280;5220;43.192;23.284;2024-03-08T00:23:22;97218.41;;;5.87;100.00
10348;BME280;5220;43.192;23.284;2024-03-08T00:25:49;97218.69;;;5.81;100.00
10348;BME280;5220;43.192;23.284;2024-03-08T00:28:16;97224.50;;;5.67;100.00
10348;BME280;5220;43.192;23.284;2024-03-08T00:30:44;97222.25;;;5.78;100.00
10348;BME280;5220;43.192;23.284;2024-03-08T00:33:12;97214.97;;;5.69;100.00
10348;BME280;5220;43.192;23.284;2024-03-08T00:35:38;97225.19;;;5.71;100.00
10348;BME280;5220;43.192;23.284;2024-03-08T00:38:06;97219.91;;;5.57;100.00
10348;BME280;5220;43.192;23.284;2024-03-08T00:40:33;97218.34;;;5.70;100.00
10348;BME280;5220;43.192;23.284;2024-03-08T00:43:00;97220.50;;;5.45;100.00
10348;BME280;5220;43.192;23.284;2024-03-08T00:45:29;97209.72;;;5.54;100.00
10348;BME280;5220;43.192;23.284;2024-03-08T00:47:56;97210.28;;;5.24;100.00
10348;BME280;5220;43.192;23.284;2024-03-08T00:50:22;97209.88;;;5.68;100.00
10348;BME280;5220;43.192;23.284;2024-03-08T00:52:49;97216.41;;;5.75;100.00
10348;BME280;5220;43.192;23.284;2024-03-08T00:55:17;97206.75;;;5.61;100.00
10348;BME280;5220;43.192;23.284;2024-03-08T00:57:44;97206.69;;;5.63;100.00
10348;BME280;5220;43.192;23.284;2024-03-08T01:00:11;97208.97;;;5.86;100.00
10348;BME280;5220;43.192;23.284;2024-03-08T01:02:38;97209.19;;;5.64;100.00
10348;BME280;5220;43.192;23.284;2024-03-08T01:05:05;97210.78;;;5.50;100.00
10348;BME280;5220;43.192;23.284;2024-03-08T01:07:32;97213.50;;;5.81;100.00
10348;BME280;5220;43.192;23.284;2024-03-08T01:09:59;97212.91;;;5.76;100.00
10348;BME280;5220;43.192;23.284;2024-03-08T01:12:28;97227.41;;;5.78;100.00
10348;BME280;5220;43.192;23.284;2024-03-08T01:14:55;97210.19;;;5.79;100.00
10348;BME280;5220;43.192;23.284;2024-03-08T01:17:23;97216.09;;;5.81;100.00
10348;BME280;5220;43.192;23.284;2024-03-08T01:19:50;97209.19;;;5.81;100.00
10348;BME280;5220;43.192;23.284;2024-03-08T01:22:17;97200.09;;;5.57;100.00
10348;BME280;5220;43.192;23.284;2024-03-08T01:24:43;97207.59;;;5.62;100.00
10348;BME280;5220;43.192;23.284;2024-03-08T01:27:10;97198.00;;;5.64;100.00
10348;BME280;5220;43.192;23.284;2024-03-08T01:29:39;97207.66;;;5.77;100.00
10348;BME280;5220;43.192;23.284;2024-03-08T01:32:06;97206.75;;;5.78;100.00
10348;BME280;5220;43.192;23.284;2024-03-08T01:34:32;97208.34;;;5.64;100.00
10348;BME280;5220;43.192;23.284;2024-03-08T01:36:59;97207.44;;;5.82;100.00
10348;BME280;5220;43.192;23.284;2024-03-08T01:39:26;97206.53;;;5.66;100.00
10348;BME280;5220;43.192;23.284;2024-03-08T01:41:53;97210.25;;;5.77;100.00
10348;BME280;5220;43.192;23.284;2024-03-08T01:44:20;97208.88;;;5.70;100.00
10348;BME280;5220;43.192;23.284;2024-03-08T01:46:49;97204.63;;;5.52;100.00
10348;BME280;5220;43.192;23.284;2024-03-08T01:49:18;97203.56;;;5.73;100.00
10348;BME280;5220;43.192;23.284;2024-03-08T01:51:46;97208.97;;;5.69;100.00
10348;BME280;5220;43.192;23.284;2024-03-08T01:54:16;97207.81;;;5.74;100.00
10348;BME280;5220;43.192;23.284;2024-03-08T01:56:45;97206.22;;;5.72;100.00
10348;BME280;5220;43.192;23.284;2024-03-08T01:59:13;97204.34;;;5.75;100.00
10348;BME280;5220;43.192;23.284;2024-03-08T02:01:40;97200.91;;;5.58;100.00
10348;BME280;5220;43.192;23.284;2024-03-08T02:04:09;97197.50;;;5.74;100.00
10348;BME280;5220;43.192;23.284;2024-03-08T02:06:37;97200.66;;;5.79;100.00
10348;BME280;5220;43.192;23.284;2024-03-08T02:09:04;97202.53;;;5.60;100.00
10348;BME280;5220;43.192;23.284;2024-03-08T02:11:33;97195.53;;;5.62;100.00
10348;BME280;5220;43.192;23.284;2024-03-08T02:14:01;97192.47;;;5.20;100.00
10348;BME280;5220;43.192;23.284;2024-03-08T02:16:28;97193.31;;;5.55;100.00
10348;BME280;5220;43.192;23.284;2024-03-08T02:18:54;97182.44;;;5.48;100.00
10348;BME280;5220;43.192;23.284;2024-03-08T02:21:23;97190.09;;;5.32;100.00
10348;BME280;5220;43.192;23.284;2024-03-08T02:23:49;97193.63;;;5.49;100.00
10348;BME280;5220;43.192;23.284;2024-03-08T02:26:17;97194.59;;;5.46;100.00
10348;BME280;5220;43.192;23.284;2024-03-08T02:28:44;97191.63;;;5.36;100.00
10348;BME280;5220;43.192;23.284;2024-03-08T02:31:11;97199.31;;;5.55;100.00
10348;BME280;5220;43.192;23.284;2024-03-08T02:33:38;97192.47;;;5.37;100.00
10348;BME280;5220;43.192;23.284;2024-03-08T02:36:05;97196.97;;;5.51;100.00
10348;BME280;5220;43.192;23.284;2024-03-08T02:38:34;97194.69;;;5.62;100.00
10348;BME280;5220;43.192;23.284;2024-03-08T02:41:00;97196.78;;;5.36;100.00
10348;BME280;5220;43.192;23.284;2024-03-08T02:43:29;97202.50;;;5.43;100.00
10348;BME280;5220;43.192;23.284;2024-03-08T02:45:55;97201.34;;;5.31;100.00
10348;BME280;5220;43.192;23.284;2024-03-08T02:48:22;97193.56;;;5.50;100.00
10348;BME280;5220;43.192;23.284;2024-03-08T02:50:49;97206.59;;;5.64;100.00
10348;BME280;5220;43.192;23.284;2024-03-08T02:53:16;97202.03;;;5.52;100.00
10348;BME280;5220;43.192;23.284;2024-03-08T02:55:45;97195.97;;;5.53;100.00
10348;BME280;5220;43.192;23.284;2024-03-08T02:58:12;97196.81;;;5.54;100.00
10348;BME280;5220;43.192;23.284;2024-03-08T03:00:40;97203.63;;;5.55;100.00
10348;BME280;5220;43.192;23.284;2024-03-08T03:03:06;97206.97;;;5.39;100.00
10348;BME280;5220;43.192;23.284;2024-03-08T03:05:33;97191.97;;;5.12;100.00
10348;BME280;5220;43.192;23.284;2024-03-08T03:08:00;97184.94;;;5.15;100.00
10348;BME280;5220;43.192;23.284;2024-03-08T03:10:29;97187.00;;;5.26;100.00
10348;BME280;5220;43.192;23.284;2024-03-08T03:12:57;97190.41;;;5.26;100.00
10348;BME280;5220;43.192;23.284;2024-03-08T03:15:24;97195.72;;;5.23;100.00
10348;BME280;5220;43.192;23.284;2024-03-08T03:17:51;97193.38;;;5.19;100.00
10348;BME280;5220;43.192;23.284;2024-03-08T03:20:18;97197.03;;;5.32;100.00
10348;BME280;5220;43.192;23.284;2024-03-08T03:22:52;97197.28;;;5.45;100.00
10348;BME280;5220;43.192;23.284;2024-03-08T03:25:19;97203.41;;;5.59;100.00
10348;BME280;5220;43.192;23.284;2024-03-08T03:27:50;97214.88;;;5.71;100.00
10348;BME280;5220;43.192;23.284;2024-03-08T03:30:19;97205.94;;;5.78;100.00
10348;BME280;5220;43.192;23.284;2024-03-08T03:32:48;97200.31;;;5.53;100.00
10348;BME280;5220;43.192;23.284;2024-03-08T03:35:16;97205.47;;;5.35;100.00
10348;BME280;5220;43.192;23.284;2024-03-08T03:37:44;97209.78;;;5.52;100.00
10348;BME280;5220;43.192;23.284;2024-03-08T03:40:16;97203.94;;;5.49;100.00
10348;BME280;5220;43.192;23.284;2024-03-08T03:42:44;97207.75;;;5.41;100.00
10348;BME280;5220;43.192;23.284;2024-03-08T03:45:11;97204.31;;;5.41;100.00
10348;BME280;5220;43.192;23.284;2024-03-08T03:47:42;97198.13;;;5.26;100.00
10348;BME280;5220;43.192;23.284;2024-03-08T03:50:09;97201.25;;;5.33;100.00
10348;BME280;5220;43.192;23.284;2024-03-08T03:52:36;97203.94;;;5.49;100.00
10348;BME280;5220;43.192;23.284;2024-03-08T03:55:03;97212.16;;;5.57;100.00
10348;BME280;5220;43.192;23.284;2024-03-08T03:57:31;97205.16;;;5.41;100.00
10348;BME280;5220;43.192;23.284;2024-03-08T03:59:57;97209.19;;;5.47;100.00
10348;BME280;5220;43.192;23.284;2024-03-08T04:02:24;97213.94;;;5.55;100.00
10348;BME280;5220;43.192;23.284;2024-03-08T04:04:53;97217.84;;;5.63;100.00
10348;BME280;5220;43.192;23.284;2024-03-08T04:07:20;97218.25;;;5.73;100.00
10348;BME280;5220;43.192;23.284;2024-03-08T04:09:47;97212.06;;;5.41;100.00
10348;BME280;5220;43.192;23.284;2024-03-08T04:12:13;97218.38;;;5.53;100.00
10348;BME280;5220;43.192;23.284;2024-03-08T04:14:41;97221.47;;;5.59;100.00
10348;BME280;5220;43.192;23.284;2024-03-08T04:17:08;97218.06;;;5.41;100.00
10348;BME280;5220;43.192;23.284;2024-03-08T04:19:36;97221.31;;;5.45;100.00
10348;BME280;5220;43.192;23.284;2024-03-08T04:22:05;97218.91;;;5.23;100.00
10348;BME280;5220;43.192;23.284;2024-03-08T04:24:32;97224.91;;;5.24;100.00
10348;BME280;5220;43.192;23.284;2024-03-08T04:26:59;97226.38;;;4.94;100.00
10348;BME280;5220;43.192;23.284;2024-03-08T04:29:26;97223.47;;;5.18;100.00
10348;BME280;5220;43.192;23.284;2024-03-08T04:31:52;97225.94;;;5.38;100.00
10348;BME280;5220;43.192;23.284;2024-03-08T04:34:20;97230.91;;;5.24;100.00
10348;BME280;5220;43.192;23.284;2024-03-08T04:36:46;97233.84;;;5.35;100.00
10348;BME280;5220;43.192;23.284;2024-03-08T04:39:15;97241.88;;;5.47;100.00
10348;BME280;5220;43.192;23.284;2024-03-08T04:41:44;97235.81;;;5.48;100.00
10348;BME280;5220;43.192;23.284;2024-03-08T04:44:11;97244.75;;;5.58;100.00
10348;BME280;5220;43.192;23.284;2024-03-08T04:46:39;97243.56;;;4.93;100.00
10348;BME280;5220;43.192;23.284;2024-03-08T04:49:06;97236.81;;;4.72;100.00
10348;BME280;5220;43.192;23.284;2024-03-08T04:51:33;97229.91;;;4.91;100.00
10348;BME280;5220;43.192;23.284;2024-03-08T04:54:00;97231.41;;;5.14;100.00
10348;BME280;5220;43.192;23.284;2024-03-08T04:56:28;97231.66;;;4.91;100.00
10348;BME280;5220;43.192;23.284;2024-03-08T04:58:54;97227.72;;;5.19;100.00
10348;BME280;5220;43.192;23.284;2024-03-08T05:01:21;97243.66;;;5.27;100.00
10348;BME280;5220;43.192;23.284;2024-03-08T05:03:48;97249.97;;;5.39;100.00
10348;BME280;5220;43.192;23.284;2024-03-08T05:06:15;97253.41;;;5.04;100.00
10348;BME280;5220;43.192;23.284;2024-03-08T05:08:42;97249.50;;;5.31;100.00
10348;BME280;5220;43.192;23.284;2024-03-08T05:11:09;97251.91;;;5.35;100.00
10348;BME280;5220;43.192;23.284;2024-03-08T05:13:37;97258.41;;;4.88;100.00
10348;BME280;5220;43.192;23.284;2024-03-08T05:16:04;97256.72;;;5.06;100.00
10348;BME280;5220;43.192;23.284;2024-03-08T05:18:32;97263.56;;;5.07;100.00
10348;BME280;5220;43.192;23.284;2024-03-08T05:21:01;97264.75;;;4.81;100.00
10348;BME280;5220;43.192;23.284;2024-03-08T05:23:29;97270.19;;;4.94;100.00
10348;BME280;5220;43.192;23.284;2024-03-08T05:25:56;97272.28;;;5.04;100.00
10348;BME280;5220;43.192;23.284;2024-03-08T05:28:22;97272.00;;;4.73;100.00
10348;BME280;5220;43.192;23.284;2024-03-08T05:30:50;97271.03;;;4.94;100.00
10348;BME280;5220;43.192;23.284;2024-03-08T05:33:17;97277.78;;;4.97;100.00
10348;BME280;5220;43.192;23.284;2024-03-08T05:35:44;97279.22;;;4.83;100.00
10348;BME280;5220;43.192;23.284;2024-03-08T05:38:11;97279.59;;;4.76;100.00
10348;BME280;5220;43.192;23.284;2024-03-08T05:40:38;97282.38;;;4.90;100.00
10348;BME280;5220;43.192;23.284;2024-03-08T05:43:05;97289.69;;;4.99;100.00
10348;BME280;5220;43.192;23.284;2024-03-08T05:45:31;97286.34;;;5.16;100.00
10348;BME280;5220;43.192;23.284;2024-03-08T05:48:01;97292.66;;;5.27;100.00
10348;BME280;5220;43.192;23.284;2024-03-08T05:50:28;97302.09;;;5.10;100.00
10348;BME280;5220;43.192;23.284;2024-03-08T05:52:55;97303.50;;;5.17;100.00
10348;BME280;5220;43.192;23.284;2024-03-08T05:55:22;97311.09;;;5.20;100.00
10348;BME280;5220;43.192;23.284;2024-03-08T05:57:50;97317.56;;;5.28;100.00
10348;BME280;5220;43.192;23.284;2024-03-08T06:00:18;97313.16;;;4.93;100.00
10348;BME280;5220;43.192;23.284;2024-03-08T06:02:44;97314.75;;;5.14;100.00
10348;BME280;5220;43.192;23.284;2024-03-08T06:05:12;97315.59;;;4.77;100.00
10348;BME280;5220;43.192;23.284;2024-03-08T06:07:39;97318.47;;;4.90;100.00
10348;BME280;5220;43.192;23.284;2024-03-08T06:10:08;97324.22;;;4.95;100.00
10348;BME280;5220;43.192;23.284;2024-03-08T06:12:37;97333.47;;;5.19;100.00
10348;BME280;5220;43.192;23.284;2024-03-08T06:15:07;97335.09;;;5.20;100.00
10348;BME280;5220;43.192;23.284;2024-03-08T06:17:34;97336.75;;;5.23;100.00
10348;BME280;5220;43.192;23.284;2024-03-08T06:20:00;97339.50;;;5.18;100.00
10348;BME280;5220;43.192;23.284;2024-03-08T06:22:29;97342.78;;;5.03;100.00
10348;BME280;5220;43.192;23.284;2024-03-08T06:24:56;97343.97;;;5.15;100.00
10348;BME280;5220;43.192;23.284;2024-03-08T06:27:22;97350.72;;;4.60;100.00
10348;BME280;5220;43.192;23.284;2024-03-08T06:29:49;97333.78;;;4.93;100.00
10348;BME280;5220;43.192;23.284;2024-03-08T06:32:16;97341.34;;;5.16;100.00
10348;BME280;5220;43.192;23.284;2024-03-08T06:34:44;97339.78;;;5.31;100.00
10348;BME280;5220;43.192;23.284;2024-03-08T06:37:11;97346.19;;;4.85;100.00
10348;BME280;5220;43.192;23.284;2024-03-08T06:39:39;97348.06;;;4.81;100.00
10348;BME280;5220;43.192;23.284;2024-03-08T06:42:05;97354.97;;;5.00;100.00
10348;BME280;5220;43.192;23.284;2024-03-08T06:44:34;97354.31;;;4.76;100.00
10348;BME280;5220;43.192;23.284;2024-03-08T06:47:01;97349.75;;;5.01;100.00
10348;BME280;5220;43.192;23.284;2024-03-08T06:49:28;97357.09;;;5.10;100.00
10348;BME280;5220;43.192;23.284;2024-03-08T06:51:54;97362.44;;;5.24;100.00
10348;BME280;5220;43.192;23.284;2024-03-08T06:54:22;97360.28;;;5.34;100.00
10348;BME280;5220;43.192;23.284;2024-03-08T06:56:51;97366.19;;;5.36;100.00
10348;BME280;5220;43.192;23.284;2024-03-08T06:59:18;97371.16;;;5.40;100.00
10348;BME280;5220;43.192;23.284;2024-03-08T07:01:44;97360.97;;;5.19;100.00
10348;BME280;5220;43.192;23.284;2024-03-08T07:04:11;97369.47;;;5.39;100.00
10348;BME280;5220;43.192;23.284;2024-03-08T07:06:38;97378.75;;;5.25;100.00
10348;BME280;5220;43.192;23.284;2024-03-08T07:09:06;97369.75;;;5.15;100.00
10348;BME280;5220;43.192;23.284;2024-03-08T07:11:32;97375.03;;;4.93;100.00
10348;BME280;5220;43.192;23.284;2024-03-08T07:14:01;97371.31;;;4.80;100.00
10348;BME280;5220;43.192;23.284;2024-03-08T07:16:31;97376.97;;;4.88;100.00
10348;BME280;5220;43.192;23.284;2024-03-08T07:18:57;97372.34;;;5.15;100.00
10348;BME280;5220;43.192;23.284;2024-03-08T07:21:24;97369.16;;;5.28;100.00
10348;BME280;5220;43.192;23.284;2024-03-08T07:23:51;97375.81;;;5.14;100.00
10348;BME280;5220;43.192;23.284;2024-03-08T07:26:38;97372.47;;;5.30;100.00
10348;BME280;5220;43.192;23.284;2024-03-08T07:29:06;97373.75;;;5.40;100.00
10348;BME280;5220;43.192;23.284;2024-03-08T07:31:34;97378.00;;;5.41;100.00
10348;BME280;5220;43.192;23.284;2024-03-08T07:34:10;97381.63;;;5.56;100.00
10348;BME280;5220;43.192;23.284;2024-03-08T07:36:37;97377.06;;;5.61;100.00
10348;BME280;5220;43.192;23.284;2024-03-08T07:39:04;97390.06;;;5.60;100.00
10348;BME280;5220;43.192;23.284;2024-03-08T07:41:34;97387.09;;;5.67;100.00
10348;BME280;5220;43.192;23.284;2024-03-08T07:44:01;97391.16;;;5.73;100.00
10348;BME280;5220;43.192;23.284;2024-03-08T07:46:30;97389.25;;;5.76;100.00
10348;BME280;5220;43.192;23.284;2024-03-08T07:48:57;97392.06;;;5.72;100.00
10348;BME280;5220;43.192;23.284;2024-03-08T07:51:24;97401.88;;;5.64;100.00
10348;BME280;5220;43.192;23.284;2024-03-08T07:53:50;97403.16;;;5.55;100.00
10348;BME280;5220;43.192;23.284;2024-03-08T07:56:17;97400.66;;;5.54;100.00
10348;BME280;5220;43.192;23.284;2024-03-08T07:58:44;97392.63;;;5.60;100.00
10348;BME280;5220;43.192;23.284;2024-03-08T08:01:16;97402.16;;;5.58;100.00
10348;BME280;5220;43.192;23.284;2024-03-08T08:03:44;97399.53;;;5.59;100.00
10348;BME280;5220;43.192;23.284;2024-03-08T08:06:11;97397.38;;;5.50;100.00
10348;BME280;5220;43.192;23.284;2024-03-08T08:08:41;97396.69;;;5.47;100.00
10348;BME280;5220;43.192;23.284;2024-03-08T08:11:08;97390.63;;;5.48;100.00
10348;BME280;5220;43.192;23.284;2024-03-08T08:13:36;97391.38;;;5.50;100.00
10348;BME280;5220;43.192;23.284;2024-03-08T08:16:04;97394.56;;;5.55;100.00
10348;BME280;5220;43.192;23.284;2024-03-08T08:18:32;97392.94;;;5.35;100.00
10348;BME280;5220;43.192;23.284;2024-03-08T08:21:02;97385.75;;;5.23;100.00
10348;BME280;5220;43.192;23.284;2024-03-08T08:23:32;97384.81;;;5.42;100.00
10348;BME280;5220;43.192;23.284;2024-03-08T08:25:59;97393.63;;;5.38;100.00
10348;BME280;5220;43.192;23.284;2024-03-08T08:28:29;97385.31;;;5.51;100.00
10348;BME280;5220;43.192;23.284;2024-03-08T08:30:56;97387.47;;;5.60;100.00
10348;BME280;5220;43.192;23.284;2024-03-08T08:33:24;97390.19;;;5.57;100.00
10348;BME280;5220;43.192;23.284;2024-03-08T08:35:51;97383.22;;;5.59;100.00
10348;BME280;5220;43.192;23.284;2024-03-08T08:38:20;97388.19;;;5.63;100.00
10348;BME280;5220;43.192;23.284;2024-03-08T08:40:47;97383.00;;;5.82;100.00
10348;BME280;5220;43.192;23.284;2024-03-08T08:43:14;97384.31;;;5.90;100.00
10348;BME280;5220;43.192;23.284;2024-03-08T08:45:40;97391.03;;;5.94;100.00
10348;BME280;5220;43.192;23.284;2024-03-08T08:48:08;97393.06;;;5.88;100.00
10348;BME280;5220;43.192;23.284;2024-03-08T08:50:35;97390.09;;;5.95;100.00
10348;BME280;5220;43.192;23.284;2024-03-08T08:53:03;97393.31;;;6.01;100.00
10348;BME280;5220;43.192;23.284;2024-03-08T08:55:33;97390.63;;;6.02;100.00
10348;BME280;5220;43.192;23.284;2024-03-08T08:58:01;97388.66;;;6.07;100.00
10348;BME280;5220;43.192;23.284;2024-03-08T09:00:28;97391.13;;;6.10;100.00
10348;BME280;5220;43.192;23.284;2024-03-08T09:02:56;97396.94;;;6.14;100.00
10348;BME280;5220;43.192;23.284;2024-03-08T09:05:24;97389.97;;;6.16;100.00
10348;BME280;5220;43.192;23.284;2024-03-08T09:07:51;97387.16;;;6.20;100.00
10348;BME280;5220;43.192;23.284;2024-03-08T09:10:18;97383.22;;;6.13;100.00
10348;BME280;5220;43.192;23.284;2024-03-08T09:12:46;97392.78;;;6.11;100.00
10348;BME280;5220;43.192;23.284;2024-03-08T09:15:13;97388.66;;;6.07;100.00
10348;BME280;5220;43.192;23.284;2024-03-08T09:17:39;97385.88;;;6.12;100.00
10348;BME280;5220;43.192;23.284;2024-03-08T09:20:07;97387.00;;;6.23;100.00
10348;BME280;5220;43.192;23.284;2024-03-08T09:22:35;97399.38;;;6.17;100.00
10348;BME280;5220;43.192;23.284;2024-03-08T09:25:03;97387.78;;;6.25;100.00
10348;BME280;5220;43.192;23.284;2024-03-08T09:27:30;97385.88;;;6.12;100.00
10348;BME280;5220;43.192;23.284;2024-03-08T09:29:58;97382.44;;;5.94;100.00
10348;BME280;5220;43.192;23.284;2024-03-08T09:32:25;97382.84;;;5.85;100.00
10348;BME280;5220;43.192;23.284;2024-03-08T09:34:52;97377.63;;;5.68;100.00
10348;BME280;5220;43.192;23.284;2024-03-08T09:37:19;97380.41;;;5.82;100.00
10348;BME280;5220;43.192;23.284;2024-03-08T09:39:46;97374.47;;;5.80;100.00
10348;BME280;5220;43.192;23.284;2024-03-08T09:42:15;97379.41;;;5.84;100.00
10348;BME280;5220;43.192;23.284;2024-03-08T09:44:44;97384.38;;;5.89;100.00
10348;BME280;5220;43.192;23.284;2024-03-08T09:47:14;97383.53;;;5.88;100.00
10348;BME280;5220;43.192;23.284;2024-03-08T09:49:40;97380.94;;;5.88;100.00
10348;BME280;5220;43.192;23.284;2024-03-08T09:52:08;97388.94;;;6.01;100.00
10348;BME280;5220;43.192;23.284;2024-03-08T09:54:35;97388.81;;;6.04;100.00
10348;BME280;5220;43.192;23.284;2024-03-08T09:57:03;97392.03;;;6.09;100.00
10348;BME280;5220;43.192;23.284;2024-03-08T09:59:30;97393.81;;;6.07;100.00
10348;BME280;5220;43.192;23.284;2024-03-08T10:02:15;97395.22;;;6.14;100.00
10348;BME280;5220;43.192;23.284;2024-03-08T10:04:42;97388.28;;;5.98;100.00
10348;BME280;5220;43.192;23.284;2024-03-08T10:07:11;97396.94;;;6.14;100.00
10348;BME280;5220;43.192;23.284;2024-03-08T10:09:38;97393.47;;;6.15;100.00
10348;BME280;5220;43.192;23.284;2024-03-08T10:12:08;97392.81;;;6.28;100.00
10348;BME280;5220;43.192;23.284;2024-03-08T10:14:39;97395.78;;;6.38;100.00
10348;BME280;5220;43.192;23.284;2024-03-08T10:17:07;97400.41;;;6.48;100.00
10348;BME280;5220;43.192;23.284;2024-03-08T10:19:35;97395.84;;;6.54;100.00
10348;BME280;5220;43.192;23.284;2024-03-08T10:22:02;97393.56;;;6.13;100.00
10348;BME280;5220;43.192;23.284;2024-03-08T10:24:30;97393.84;;;6.41;100.00
10348;BME280;5220;43.192;23.284;2024-03-08T10:26:59;97397.22;;;6.43;100.00
10348;BME280;5220;43.192;23.284;2024-03-08T10:29:27;97391.44;;;6.56;100.00
10348;BME280;5220;43.192;23.284;2024-03-08T10:31:54;97399.31;;;6.70;100.00
10348;BME280;5220;43.192;23.284;2024-03-08T10:34:22;97392.78;;;6.80;100.00
10348;BME280;5220;43.192;23.284;2024-03-08T10:36:51;97391.13;;;6.62;100.00
10348;BME280;5220;43.192;23.284;2024-03-08T10:39:21;97391.56;;;6.70;100.00
10348;BME280;5220;43.192;23.284;2024-03-08T10:41:52;97391.50;;;6.71;100.00
10348;BME280;5220;43.192;23.284;2024-03-08T10:44:31;97386.59;;;6.82;100.00
10348;BME280;5220;43.192;23.284;2024-03-08T10:47:01;97381.38;;;6.67;100.00
10348;BME280;5220;43.192;23.284;2024-03-08T10:49:31;97375.69;;;6.77;100.00
10348;BME280;5220;43.192;23.284;2024-03-08T10:52:03;97378.94;;;6.64;100.00
10348;BME280;5220;43.192;23.284;2024-03-08T10:54:31;97376.22;;;6.67;100.00
10348;BME280;5220;43.192;23.284;2024-03-08T10:56:59;97369.56;;;6.28;100.00
10348;BME280;5220;43.192;23.284;2024-03-08T10:59:29;97371.91;;;6.16;100.00
10348;BME280;5220;43.192;23.284;2024-03-08T11:01:57;97364.13;;;5.99;100.00
10348;BME280;5220;43.192;23.284;2024-03-08T11:04:23;97353.97;;;6.30;100.00
10348;BME280;5220;43.192;23.284;2024-03-08T11:06:51;97352.53;;;6.24;100.00
10348;BME280;5220;43.192;23.284;2024-03-08T11:09:30;97352.22;;;6.13;100.00
10348;BME280;5220;43.192;23.284;2024-03-08T11:12:19;97352.31;;;6.29;100.00
10348;BME280;5220;43.192;23.284;2024-03-08T11:14:47;97338.84;;;6.05;100.00
10348;BME280;5220;43.192;23.284;2024-03-08T11:17:15;97347.63;;;6.01;100.00
10348;BME280;5220;43.192;23.284;2024-03-08T11:19:47;97346.03;;;5.99;100.00
10348;BME280;5220;43.192;23.284;2024-03-08T11:22:21;97346.31;;;6.28;100.00
10348;BME280;5220;43.192;23.284;2024-03-08T11:24:51;97346.69;;;6.04;100.00
10348;BME280;5220;43.192;23.284;2024-03-08T11:27:18;97347.06;;;5.77;100.00
10348;BME280;5220;43.192;23.284;2024-03-08T11:29:59;97344.78;;;6.24;100.00
10348;BME280;5220;43.192;23.284;2024-03-08T11:32:35;97349.47;;;5.99;100.00
10348;BME280;5220;43.192;23.284;2024-03-08T11:35:06;97339.91;;;6.35;100.00
10348;BME280;5220;43.192;23.284;2024-03-08T11:37:34;97343.16;;;6.39;100.00
10348;BME280;5220;43.192;23.284;2024-03-08T11:40:11;97353.34;;;6.42;100.00
10348;BME280;5220;43.192;23.284;2024-03-08T11:42:40;97348.25;;;6.58;100.00
10348;BME280;5220;43.192;23.284;2024-03-08T11:45:08;97350.66;;;6.78;100.00
10348;BME280;5220;43.192;23.284;2024-03-08T11:47:36;97351.53;;;6.94;100.00
10348;BME280;5220;43.192;23.284;2024-03-08T11:50:06;97351.78;;;6.89;100.00
10348;BME280;5220;43.192;23.284;2024-03-08T11:52:36;97340.97;;;6.66;100.00
10348;BME280;5220;43.192;23.284;2024-03-08T11:55:05;97346.81;;;6.69;100.00
10348;BME280;5220;43.192;23.284;2024-03-08T11:57:32;97352.19;;;6.65;100.00
10348;BME280;5220;43.192;23.284;2024-03-08T11:59:59;97355.66;;;6.31;100.00
10348;BME280;5220;43.192;23.284;2024-03-08T12:02:31;97350.16;;;6.54;100.00
10348;BME280;5220;43.192;23.284;2024-03-08T12:05:01;97346.22;;;6.47;100.00
10348;BME280;5220;43.192;23.284;2024-03-08T12:07:29;97349.03;;;6.42;100.00
10348;BME280;5220;43.192;23.284;2024-03-08T12:10:18;97342.81;;;6.46;100.00
10348;BME280;5220;43.192;23.284;2024-03-08T12:12:48;97341.97;;;6.46;100.00
10348;BME280;5220;43.192;23.284;2024-03-08T12:15:17;97345.13;;;6.68;100.00
10348;BME280;5220;43.192;23.284;2024-03-08T12:17:44;97342.88;;;6.45;100.00
10348;BME280;5220;43.192;23.284;2024-03-08T12:20:15;97350.84;;;6.58;100.00
10348;BME280;5220;43.192;23.284;2024-03-08T12:22:42;97339.72;;;6.73;100.00
10348;BME280;5220;43.192;23.284;2024-03-08T12:25:10;97343.47;;;7.00;100.00
10348;BME280;5220;43.192;23.284;2024-03-08T12:27:39;97346.06;;;7.00;100.00
10348;BME280;5220;43.192;23.284;2024-03-08T12:30:19;97340.63;;;6.72;100.00
10348;BME280;5220;43.192;23.284;2024-03-08T12:32:54;97344.88;;;6.73;100.00
10348;BME280;5220;43.192;23.284;2024-03-08T12:35:24;97345.44;;;6.62;100.00
10348;BME280;5220;43.192;23.284;2024-03-08T12:37:52;97347.88;;;6.65;100.00
10348;BME280;5220;43.192;23.284;2024-03-08T12:40:25;97337.91;;;6.58;100.00
10348;BME280;5220;43.192;23.284;2024-03-08T12:42:54;97335.81;;;6.14;100.00
10348;BME280;5220;43.192;23.284;2024-03-08T12:45:21;97333.63;;;6.07;100.00
10348;BME280;5220;43.192;23.284;2024-03-08T12:47:49;97328.06;;;5.97;100.00
10348;BME280;5220;43.192;23.284;2024-03-08T12:50:16;97326.56;;;6.10;100.00
10348;BME280;5220;43.192;23.284;2024-03-08T12:52:43;97334.31;;;6.10;100.00
10348;BME280;5220;43.192;23.284;2024-03-08T12:55:10;97335.13;;;6.11;100.00
10348;BME280;5220;43.192;23.284;2024-03-08T12:57:38;97329.88;;;6.12;100.00
10348;BME280;5220;43.192;23.284;2024-03-08T13:00:07;97340.59;;;6.22;100.00
10348;BME280;5220;43.192;23.284;2024-03-08T13:02:38;97323.97;;;6.27;100.00
10348;BME280;5220;43.192;23.284;2024-03-08T13:05:06;97332.16;;;6.18;100.00